Time;durP1;ratioP1;P1;durP2;ratioP2;P2;SDS_P1;SDS_P2;PMS_P1;PMS_P2;Temp;Humidity;BMP_temperature;BMP_pressure;BME280_temperature;BME280_humidity;BME280_pressure;Samples;Min_cycle;Max_cycle;Signal;HPM_P1;HPM_P2
2022/11/14 00:00:11;;;;;;;38.10;24.60;;;6.50;99.90;;;;;;5015398;28;20049;-75
2022/11/14 00:02:37;;;;;;;38.50;24.17;;;6.50;99.90;;;;;;5016174;28;20058;-75
2022/11/14 00:05:05;;;;;;;38.05;24.10;;;6.50;99.90;;;;;;5031827;28;20046;-76
2022/11/14 00:07:32;;;;;;;40.50;26.27;;;6.50;99.90;;;;;;5016464;28;20054;-76
2022/11/14 00:09:57;;;;;;;40.22;23.92;;;6.50;99.90;;;;;;5016483;28;20050;-75
2022/11/14 00:12:23;;;;;;;39.43;24.27;;;6.50;99.90;;;;;;5015757;28;20076;-76
2022/11/14 00:14:49;;;;;;;42.53;24.90;;;6.50;99.90;;;;;;5016402;28;20050;-76
2022/11/14 00:17:14;;;;;;;41.73;27.07;;;6.50;99.90;;;;;;5015138;28;20129;-76
2022/11/14 00:19:40;;;;;;;40.90;24.93;;;6.50;99.90;;;;;;4998681;28;20049;-75
2022/11/14 00:22:06;;;;;;;38.63;24.50;;;6.60;99.90;;;;;;5015457;28;20045;-76
2022/11/14 00:24:31;;;;;;;42.83;25.83;;;6.60;99.90;;;;;;5016357;28;20125;-76
2022/11/14 00:26:57;;;;;;;40.53;25.60;;;6.50;99.90;;;;;;5014950;28;20486;-76
2022/11/14 00:29:23;;;;;;;39.00;23.63;;;6.60;99.90;;;;;;5014928;28;20363;-76
2022/11/14 00:31:48;;;;;;;36.90;23.70;;;6.60;99.90;;;;;;5015672;28;20052;-76
2022/11/14 00:34:14;;;;;;;39.93;25.27;;;6.70;99.90;;;;;;5015796;28;20060;-76
2022/11/14 00:36:40;;;;;;;39.20;24.30;;;6.70;99.90;;;;;;5015929;28;20050;-75
2022/11/14 00:39:05;;;;;;;37.33;24.33;;;6.70;99.90;;;;;;5016405;28;20081;-76
2022/11/14 00:41:31;;;;;;;39.90;24.37;;;6.70;99.90;;;;;;5015796;28;20060;-76
2022/11/14 00:43:57;;;;;;;41.43;25.23;;;6.70;99.90;;;;;;5014917;28;20058;-76
2022/11/14 00:46:23;;;;;;;40.77;23.63;;;6.70;99.90;;;;;;5016235;28;20390;-77
2022/11/14 00:48:48;;;;;;;38.17;23.33;;;6.70;99.90;;;;;;5015635;28;20048;-75
2022/11/14 00:51:14;;;;;;;37.83;23.87;;;6.70;99.90;;;;;;5014035;28;20038;-76
2022/11/14 00:53:39;;;;;;;36.60;22.87;;;6.70;99.90;;;;;;5015627;28;20553;-76
2022/11/14 00:56:05;;;;;;;36.10;23.83;;;6.80;99.90;;;;;;5014367;28;20046;-76
2022/11/14 00:58:31;;;;;;;35.00;21.57;;;6.80;99.90;;;;;;5014376;28;20141;-76
2022/11/14 01:00:57;;;;;;;33.40;22.43;;;6.80;99.90;;;;;;5013937;28;20104;-76
2022/11/14 01:03:22;;;;;;;34.03;22.93;;;6.80;99.90;;;;;;5015483;28;20547;-76
2022/11/14 01:05:49;;;;;;;35.33;22.90;;;6.80;99.90;;;;;;4998151;28;20052;-76
2022/11/14 01:08:17;;;;;;;37.47;23.08;;;6.80;99.90;;;;;;5015069;28;20508;-76
2022/11/14 01:10:46;;;;;;;35.25;23.52;;;6.80;99.90;;;;;;5015246;28;20133;-76
2022/11/14 01:13:12;;;;;;;37.40;24.20;;;6.80;99.90;;;;;;5015030;28;20061;-76
2022/11/14 01:15:46;;;;;;;35.08;23.25;;;6.80;99.90;;;;;;5015690;28;20049;-76
2022/11/14 01:18:16;;;;;;;35.83;22.95;;;6.80;99.90;;;;;;5015946;28;20093;-76
2022/11/14 01:20:44;;;;;;;35.03;22.87;;;6.90;99.90;;;;;;5014994;28;20037;-76
2022/11/14 01:23:11;;;;;;;30.23;20.92;;;6.90;99.90;;;;;;5015001;28;20284;-75
2022/11/14 01:25:38;;;;;;;33.75;22.80;;;6.90;99.90;;;;;;5013791;28;20050;-76
2022/11/14 01:28:09;;;;;;;32.93;22.73;;;6.90;99.90;;;;;;5014044;28;20068;-75
2022/11/14 01:30:35;;;;;;;33.97;22.52;;;7.00;99.90;;;;;;5014845;28;20277;-76
2022/11/14 01:33:02;;;;;;;33.93;23.23;;;7.00;99.90;;;;;;5014887;28;20050;-75
2022/11/14 01:35:28;;;;;;;32.63;22.65;;;6.90;99.90;;;;;;5014855;28;20312;-75
2022/11/14 01:37:54;;;;;;;32.67;24.03;;;7.00;99.90;;;;;;5014134;28;20155;-75
2022/11/14 01:40:19;;;;;;;30.60;22.23;;;7.00;99.90;;;;;;5014739;28;20451;-75
2022/11/14 01:43:10;;;;;;;38.03;23.60;;;7.00;99.90;;;;;;5013756;28;20053;-75
2022/11/14 01:45:56;;;;;;;32.80;23.73;;;7.00;99.90;;;;;;5013858;28;20053;-75
2022/11/14 01:48:28;;;;;;;33.47;22.73;;;7.00;99.90;;;;;;5015136;28;20292;-75
2022/11/14 01:50:59;;;;;;;32.25;22.95;;;7.00;99.90;;;;;;5014880;28;20411;-76
2022/11/14 01:53:25;;;;;;;31.52;23.63;;;7.00;99.90;;;;;;5014589;28;20053;-75
2022/11/14 01:55:53;;;;;;;32.15;24.10;;;7.00;99.90;;;;;;5014459;28;20057;-76
2022/11/14 01:58:20;;;;;;;31.50;23.23;;;7.00;99.90;;;;;;4997150;28;20045;-76
2022/11/14 02:00:45;;;;;;;36.37;24.50;;;7.00;99.90;;;;;;5013412;28;20432;-75
2022/11/14 02:03:13;;;;;;;36.10;25.03;;;7.00;99.90;;;;;;5013997;28;20289;-75
2022/11/14 02:05:40;;;;;;;33.10;25.10;;;7.10;99.90;;;;;;5013317;28;20056;-75
2022/11/14 02:08:09;;;;;;;33.07;24.70;;;7.10;99.90;;;;;;5013312;28;20285;-75
2022/11/14 02:10:34;;;;;;;33.42;23.73;;;7.10;99.90;;;;;;5013264;28;20732;-75
2022/11/14 02:13:00;;;;;;;32.83;25.73;;;7.00;99.90;;;;;;5014260;28;20089;-75
2022/11/14 02:15:26;;;;;;;35.87;26.13;;;7.10;99.90;;;;;;5012737;28;20445;-75
2022/11/14 02:17:52;;;;;;;33.13;25.67;;;7.10;99.90;;;;;;5013881;28;20086;-75
2022/11/14 02:20:21;;;;;;;36.13;26.47;;;7.10;99.90;;;;;;5012906;28;20811;-75
2022/11/14 02:22:47;;;;;;;32.90;25.93;;;7.10;99.90;;;;;;5012727;28;20318;-75
2022/11/14 02:25:15;;;;;;;37.03;27.97;;;7.10;99.90;;;;;;5012937;28;20280;-75
2022/11/14 02:27:41;;;;;;;39.05;29.92;;;7.10;99.90;;;;;;5013982;28;20108;-75
2022/11/14 02:30:16;;;;;;;39.03;29.80;;;7.10;99.90;;;;;;5013790;28;20390;-75
2022/11/14 02:32:42;;;;;;;42.83;30.53;;;7.10;99.90;;;;;;5013579;28;20761;-75
2022/11/14 02:35:08;;;;;;;42.27;32.50;;;7.10;99.90;;;;;;5014000;28;20335;-75
2022/11/14 02:37:34;;;;;;;42.20;31.77;;;7.10;99.90;;;;;;4996303;28;20524;-75
2022/11/14 02:40:00;;;;;;;44.60;32.20;;;7.10;99.90;;;;;;5013832;28;20328;-75
2022/11/14 02:42:25;;;;;;;41.80;32.27;;;7.10;99.90;;;;;;4996450;28;20061;-75
2022/11/14 02:44:51;;;;;;;46.50;35.00;;;7.00;99.90;;;;;;5013853;28;20046;-75
2022/11/14 02:47:17;;;;;;;50.07;34.27;;;7.00;99.90;;;;;;5012813;28;20465;-75
2022/11/14 02:49:42;;;;;;;44.20;33.33;;;7.00;99.90;;;;;;5013628;28;20048;-75
2022/11/14 02:52:08;;;;;;;45.17;34.03;;;7.00;99.90;;;;;;5012489;28;20180;-76
2022/11/14 02:54:33;;;;;;;46.07;36.10;;;7.00;99.90;;;;;;5012554;28;20054;-75
2022/11/14 02:56:59;;;;;;;44.73;33.33;;;7.00;99.90;;;;;;5013429;28;20064;-76
2022/11/14 02:59:25;;;;;;;44.47;33.10;;;7.00;99.90;;;;;;5013563;28;20078;-75
2022/11/14 03:01:51;;;;;;;47.47;35.47;;;7.00;99.90;;;;;;5012801;28;20057;-76
2022/11/14 03:04:17;;;;;;;45.67;33.60;;;7.00;99.90;;;;;;5013687;28;20092;-75
2022/11/14 03:06:42;;;;;;;43.57;33.53;;;7.00;99.90;;;;;;5013632;28;20046;-76
2022/11/14 03:09:08;;;;;;;46.03;33.80;;;7.00;99.90;;;;;;5012437;28;20081;-75
2022/11/14 03:11:34;;;;;;;46.05;34.50;;;7.00;99.90;;;;;;5013564;28;20094;-75
2022/11/14 03:14:00;;;;;;;47.97;34.50;;;7.00;99.90;;;;;;5015330;28;20088;-75
2022/11/14 03:16:26;;;;;;;46.47;35.17;;;7.00;99.90;;;;;;5017410;28;20042;-75
2022/11/14 03:18:51;;;;;;;51.67;35.97;;;6.80;99.90;;;;;;4999756;28;20050;-76
2022/11/14 03:21:21;;;;;;;50.83;34.77;;;6.90;99.90;;;;;;5016291;28;20073;-75
2022/11/14 03:23:47;;;;;;;49.53;36.20;;;7.00;99.90;;;;;;5017092;28;20050;-76
2022/11/14 03:26:13;;;;;;;56.37;39.23;;;6.90;99.90;;;;;;5016971;28;20478;-75
2022/11/14 03:28:40;;;;;;;56.15;38.72;;;6.90;99.90;;;;;;5000129;28;20058;-75
2022/11/14 03:31:08;;;;;;;55.05;39.30;;;6.90;99.90;;;;;;5017161;28;20042;-75
2022/11/14 03:33:34;;;;;;;53.55;38.65;;;6.90;99.90;;;;;;5016140;28;20054;-75
2022/11/14 03:36:00;;;;;;;54.70;39.92;;;6.90;99.90;;;;;;5016902;28;20121;-75
2022/11/14 03:38:26;;;;;;;54.83;39.80;;;6.90;99.90;;;;;;5017016;28;20053;-75
2022/11/14 03:40:52;;;;;;;55.60;39.20;;;6.90;99.90;;;;;;5015723;28;20303;-75
2022/11/14 03:43:20;;;;;;;57.30;39.40;;;6.90;99.90;;;;;;5016390;28;20332;-75
2022/11/14 03:45:46;;;;;;;54.83;40.05;;;6.90;99.90;;;;;;5016912;28;20129;-83
2022/11/14 03:48:12;;;;;;;54.97;38.97;;;6.90;99.90;;;;;;5017599;28;20042;-75
2022/11/14 03:50:39;;;;;;;56.17;39.70;;;6.90;99.90;;;;;;5017538;28;20041;-75
2022/11/14 03:53:05;;;;;;;52.50;37.93;;;6.90;99.90;;;;;;5015747;28;20293;-76
2022/11/14 03:55:31;;;;;;;54.10;38.28;;;6.90;99.90;;;;;;5016373;28;20779;-75
2022/11/14 03:57:57;;;;;;;57.88;41.67;;;6.90;99.90;;;;;;5016497;28;20129;-75
2022/11/14 04:00:23;;;;;;;59.27;40.00;;;6.90;99.90;;;;;;5016482;28;20133;-75
2022/11/14 04:02:48;;;;;;;53.63;39.40;;;6.90;99.90;;;;;;5016549;28;20089;-76
2022/11/14 04:05:14;;;;;;;57.23;39.00;;;6.90;99.90;;;;;;5016429;28;20100;-75
2022/11/14 04:07:40;;;;;;;52.40;37.17;;;6.90;99.90;;;;;;5016445;28;20042;-75
2022/11/14 04:10:06;;;;;;;59.40;39.97;;;6.90;99.90;;;;;;5017218;28;20038;-76
2022/11/14 04:12:32;;;;;;;54.30;40.15;;;6.90;99.90;;;;;;5016356;28;20046;-75
2022/11/14 04:14:57;;;;;;;54.90;38.00;;;6.90;99.90;;;;;;5016558;28;20195;-75
2022/11/14 04:17:23;;;;;;;55.10;37.77;;;6.90;99.90;;;;;;5017062;28;20062;-75
2022/11/14 04:19:49;;;;;;;51.50;36.97;;;6.90;99.90;;;;;;5015003;28;20096;-75
2022/11/14 04:22:15;;;;;;;51.67;37.73;;;6.90;99.90;;;;;;5016230;28;20072;-75
2022/11/14 04:24:40;;;;;;;55.70;38.83;;;6.90;99.90;;;;;;5015189;28;20288;-75
2022/11/14 04:27:06;;;;;;;51.03;35.67;;;6.80;99.90;;;;;;5016124;28;20123;-75
2022/11/14 04:29:32;;;;;;;56.47;38.13;;;6.90;99.90;;;;;;5015177;28;20046;-75
2022/11/14 04:31:57;;;;;;;57.50;39.53;;;6.80;99.90;;;;;;5016611;28;20477;-75
2022/11/14 04:34:23;;;;;;;51.10;37.47;;;6.80;99.90;;;;;;5014840;28;20054;-75
2022/11/14 04:36:50;;;;;;;52.70;37.93;;;6.70;99.90;;;;;;5015003;28;20153;-75
2022/11/14 04:39:16;;;;;;;55.90;37.57;;;6.80;99.90;;;;;;5015859;28;20042;-75
2022/11/14 04:41:42;;;;;;;56.63;39.07;;;6.70;99.90;;;;;;5014921;28;20367;-75
2022/11/14 04:44:08;;;;;;;55.53;37.70;;;6.70;99.90;;;;;;5014810;28;20388;-75
2022/11/14 04:46:34;;;;;;;53.63;38.00;;;6.70;99.90;;;;;;5016353;28;20045;-75
2022/11/14 04:48:59;;;;;;;53.57;37.37;;;6.70;99.90;;;;;;5014500;28;20053;-75
2022/11/14 04:51:25;;;;;;;54.07;37.07;;;6.70;99.90;;;;;;5015697;28;20129;-75
2022/11/14 04:53:51;;;;;;;55.37;38.17;;;6.70;99.90;;;;;;5015488;28;20081;-75
2022/11/14 04:56:16;;;;;;;57.70;38.07;;;6.70;99.90;;;;;;5014653;28;20046;-76
2022/11/14 04:58:42;;;;;;;53.63;37.30;;;6.70;99.90;;;;;;5015509;28;20064;-76
2022/11/14 05:01:09;;;;;;;54.33;38.93;;;6.70;99.90;;;;;;5015403;28;20100;-76
2022/11/14 05:03:35;;;;;;;55.72;39.60;;;6.70;99.90;;;;;;5030835;28;20050;-76
2022/11/14 05:06:02;;;;;;;52.90;37.07;;;6.70;99.90;;;;;;5015920;28;20053;-76
2022/11/14 05:08:27;;;;;;;56.05;38.85;;;6.70;99.90;;;;;;5014618;28;20501;-75
2022/11/14 05:10:53;;;;;;;55.13;38.03;;;6.70;99.90;;;;;;5015825;28;20041;-76
2022/11/14 05:13:19;;;;;;;50.73;36.10;;;6.70;99.90;;;;;;5014988;28;20077;-75
2022/11/14 05:15:44;;;;;;;53.73;37.33;;;6.70;99.90;;;;;;5014329;28;20046;-76
2022/11/14 05:18:10;;;;;;;52.67;38.70;;;6.60;99.90;;;;;;5014252;28;20390;-76
2022/11/14 05:20:36;;;;;;;55.43;38.73;;;6.70;99.90;;;;;;5015332;28;20378;-77
2022/11/14 05:23:02;;;;;;;50.90;35.20;;;6.60;99.90;;;;;;5030580;28;20118;-76
2022/11/14 05:25:28;;;;;;;50.83;37.17;;;6.60;99.90;;;;;;5015834;28;20045;-76
2022/11/14 05:27:53;;;;;;;52.30;36.87;;;6.70;99.90;;;;;;5014949;28;20502;-76
2022/11/14 05:30:19;;;;;;;50.93;37.87;;;6.60;99.90;;;;;;4997605;28;20049;-76
2022/11/14 05:32:45;;;;;;;57.83;38.37;;;6.60;99.90;;;;;;5014957;28;20045;-76
2022/11/14 05:35:10;;;;;;;52.03;37.03;;;6.60;99.90;;;;;;5014010;28;20065;-76
2022/11/14 05:37:36;;;;;;;52.80;38.00;;;6.60;99.90;;;;;;5013266;28;20568;-76
2022/11/14 05:40:04;;;;;;;51.87;37.37;;;6.60;99.90;;;;;;5015455;28;20046;-76
2022/11/14 05:42:29;;;;;;;54.70;38.45;;;6.60;99.90;;;;;;5014977;28;20136;-76
2022/11/14 05:44:55;;;;;;;59.83;38.87;;;6.60;99.90;;;;;;5014741;28;20541;-76
2022/11/14 05:47:21;;;;;;;56.93;39.90;;;6.60;99.90;;;;;;5014072;28;20406;-76
2022/11/14 05:49:46;;;;;;;57.77;38.73;;;6.60;99.90;;;;;;5014591;28;20046;-76
2022/11/14 05:52:12;;;;;;;53.90;38.13;;;6.60;99.90;;;;;;5013570;28;20050;-76
2022/11/14 05:54:38;;;;;;;53.13;37.00;;;6.60;99.90;;;;;;5015562;28;20545;-75
2022/11/14 05:57:04;;;;;;;54.97;39.57;;;6.70;99.90;;;;;;5014452;28;20046;-76
2022/11/14 05:59:30;;;;;;;56.40;37.93;;;6.70;99.90;;;;;;5014325;28;20060;-76
2022/11/14 06:01:55;;;;;;;54.27;37.80;;;6.60;99.90;;;;;;5014360;28;20089;-76
2022/11/14 06:04:21;;;;;;;58.57;38.60;;;6.60;99.90;;;;;;5013887;28;20701;-76
2022/11/14 06:06:50;;;;;;;54.85;39.17;;;6.60;99.90;;;;;;5013711;28;20042;-76
2022/11/14 06:09:16;;;;;;;55.33;39.47;;;6.60;99.90;;;;;;5014277;28;20069;-76
2022/11/14 06:11:42;;;;;;;52.07;37.43;;;6.60;99.90;;;;;;4996684;28;20077;-76
2022/11/14 06:14:07;;;;;;;55.83;38.90;;;6.70;99.90;;;;;;5014248;28;20312;-76
2022/11/14 06:16:33;;;;;;;52.10;37.93;;;6.60;99.90;;;;;;5013303;28;20393;-76
2022/11/14 06:18:59;;;;;;;53.30;38.00;;;6.60;99.90;;;;;;5014115;28;20079;-75
2022/11/14 06:21:25;;;;;;;57.50;38.77;;;6.70;99.90;;;;;;5012957;28;20046;-76
2022/11/14 06:23:51;;;;;;;52.37;37.90;;;6.70;99.90;;;;;;5013161;28;20054;-76
2022/11/14 06:26:21;;;;;;;53.80;39.20;;;6.70;99.90;;;;;;5012995;28;20288;-76
2022/11/14 06:28:48;;;;;;;50.13;37.28;;;6.70;99.90;;;;;;5014172;28;20037;-76
2022/11/14 06:31:14;;;;;;;54.83;38.00;;;6.70;99.90;;;;;;5012762;28;20092;-76
2022/11/14 06:33:40;;;;;;;54.38;39.35;;;6.60;99.90;;;;;;5013321;28;20046;-75
2022/11/14 06:36:07;;;;;;;53.13;38.33;;;6.60;99.90;;;;;;5013963;28;20058;-76
2022/11/14 06:38:35;;;;;;;53.83;38.10;;;6.60;99.90;;;;;;5014170;28;20505;-75
2022/11/14 06:41:20;;;;;;;52.15;38.13;;;6.60;99.90;;;;;;5012685;28;20058;-76
2022/11/14 06:43:48;;;;;;;53.67;39.38;;;6.60;99.90;;;;;;4996927;28;20119;-75
2022/11/14 06:46:17;;;;;;;51.83;37.27;;;6.60;99.90;;;;;;5013380;28;20407;-76
2022/11/14 06:48:44;;;;;;;50.63;36.78;;;6.60;99.90;;;;;;5017689;28;20283;-75
2022/11/14 06:51:11;;;;;;;55.10;37.57;;;6.60;99.90;;;;;;5019575;28;20065;-78
2022/11/14 06:53:37;;;;;;;52.25;37.88;;;6.60;99.90;;;;;;5020301;28;20284;-76
2022/11/14 06:56:06;;;;;;;51.95;36.55;;;6.70;99.90;;;;;;5020853;28;20041;-75
2022/11/14 06:58:34;;;;;;;53.50;37.43;;;6.60;99.90;;;;;;5019228;28;20060;-75
2022/11/14 07:01:04;;;;;;;53.55;37.85;;;6.60;99.90;;;;;;5019902;28;20308;-76
2022/11/14 07:03:31;;;;;;;49.70;36.37;;;6.60;99.90;;;;;;5020078;28;20488;-76
2022/11/14 07:06:00;;;;;;;55.28;39.10;;;6.50;99.90;;;;;;5020199;28;20292;-76
2022/11/14 07:08:26;;;;;;;52.70;36.55;;;6.60;99.90;;;;;;5002888;28;20081;-76
2022/11/14 07:10:52;;;;;;;53.35;37.50;;;6.50;99.90;;;;;;5020178;28;20038;-75
2022/11/14 07:13:18;;;;;;;58.07;39.10;;;6.50;99.90;;;;;;5020077;28;20129;-76
2022/11/14 07:15:53;;;;;;;51.93;36.90;;;6.50;99.90;;;;;;5019522;28;20049;-76
2022/11/14 07:18:19;;;;;;;;;;;6.50;99.90;;;;;;5019254;28;20050;-76
2022/11/14 07:20:45;;;;;;;54.60;38.03;;;6.50;99.90;;;;;;5018897;28;19921;-76
2022/11/14 07:23:11;;;;;;;53.10;35.53;;;6.50;99.90;;;;;;5020645;28;20054;-76
2022/11/14 07:25:37;;;;;;;56.30;37.23;;;6.50;99.90;;;;;;5020033;28;20053;-76
2022/11/14 07:28:03;;;;;;;54.83;37.37;;;6.50;99.90;;;;;;5020313;28;20363;-77
2022/11/14 07:30:28;;;;;;;52.23;35.90;;;6.40;99.90;;;;;;5019998;28;20046;-79
2022/11/14 07:32:57;;;;;;;60.60;38.53;;;6.50;99.90;;;;;;5018890;28;20414;-77
2022/11/14 07:35:24;;;;;;;55.10;38.00;;;6.50;99.90;;;;;;5020481;28;20176;-78
2022/11/14 07:37:50;;;;;;;55.42;37.58;;;6.50;99.90;;;;;;5018657;28;20045;-78
2022/11/14 07:40:17;;;;;;;56.93;38.03;;;6.50;99.90;;;;;;5020097;28;20052;-77
2022/11/14 07:42:43;;;;;;;53.13;36.17;;;6.50;99.90;;;;;;5018874;28;20042;-75
2022/11/14 07:45:09;;;;;;;56.72;37.25;;;6.50;99.90;;;;;;5019814;28;20158;-75
2022/11/14 07:47:35;;;;;;;56.45;39.17;;;6.50;99.90;;;;;;5020383;28;20086;-74
2022/11/14 07:50:01;;;;;;;55.73;37.37;;;6.50;99.90;;;;;;5019806;28;20084;-75
2022/11/14 07:52:27;;;;;;;57.55;37.75;;;6.50;99.90;;;;;;5018668;28;20065;-73
2022/11/14 07:54:53;;;;;;;58.73;39.33;;;6.50;99.90;;;;;;5019785;28;20037;-76
2022/11/14 07:57:18;;;;;;;60.73;38.67;;;6.50;99.90;;;;;;5018580;28;20053;-79
2022/11/14 08:00:02;;;;;;;55.10;37.43;;;6.50;99.90;;;;;;5017460;28;20073;-76
2022/11/14 08:02:28;;;;;;;55.88;37.25;;;6.50;99.90;;;;;;5017162;28;20062;-76
2022/11/14 08:04:54;;;;;;;55.37;37.83;;;6.50;99.90;;;;;;5016598;28;20042;-76
2022/11/14 08:07:19;;;;;;;59.60;37.47;;;6.60;99.90;;;;;;5015590;28;20064;-76
2022/11/14 08:09:45;;;;;;;58.13;38.40;;;6.60;99.90;;;;;;5017037;28;20467;-76
2022/11/14 08:12:11;;;;;;;59.37;38.17;;;6.60;99.90;;;;;;5015539;28;20386;-76
2022/11/14 08:14:36;;;;;;;55.20;36.17;;;6.50;99.90;;;;;;4999108;28;20056;-76
2022/11/14 08:17:02;;;;;;;55.50;37.03;;;6.50;99.90;;;;;;5016396;28;20096;-76
2022/11/14 08:19:28;;;;;;;57.93;38.27;;;6.50;99.90;;;;;;5016299;28;20128;-76
2022/11/14 08:21:53;;;;;;;54.70;36.87;;;6.50;99.90;;;;;;4998958;28;20041;-76
2022/11/14 08:24:19;;;;;;;58.93;37.03;;;6.50;99.90;;;;;;5016078;28;20045;-75
2022/11/14 08:26:45;;;;;;;61.10;39.30;;;6.60;99.90;;;;;;5016019;28;20054;-76
2022/11/14 08:29:10;;;;;;;54.37;36.17;;;6.60;99.90;;;;;;5014962;28;20046;-76
2022/11/14 08:31:36;;;;;;;52.10;35.30;;;6.60;99.90;;;;;;5016091;28;20046;-76
2022/11/14 08:34:02;;;;;;;58.10;37.13;;;6.60;99.90;;;;;;5016076;28;20477;-76
2022/11/14 08:36:27;;;;;;;56.97;36.77;;;6.60;99.90;;;;;;5016056;28;20049;-76
2022/11/14 08:38:53;;;;;;;59.90;38.60;;;6.60;99.90;;;;;;5015920;28;20046;-76
2022/11/14 08:41:18;;;;;;;54.73;35.73;;;6.60;99.90;;;;;;5015919;28;20449;-76
2022/11/14 08:43:44;;;;;;;56.23;36.80;;;6.60;99.90;;;;;;5014933;28;20041;-76
2022/11/14 08:46:10;;;;;;;57.17;38.47;;;6.60;99.90;;;;;;5016651;28;20052;-76
2022/11/14 08:48:36;;;;;;;60.77;39.47;;;6.60;99.90;;;;;;5016016;28;20045;-76
2022/11/14 08:51:04;;;;;;;57.73;37.57;;;6.70;99.90;;;;;;5015158;28;20386;-76
2022/11/14 08:53:30;;;;;;;61.75;38.95;;;6.70;99.90;;;;;;5014428;28;20049;-76
2022/11/14 08:55:55;;;;;;;61.40;40.17;;;6.70;99.90;;;;;;5014691;28;20057;-76
2022/11/14 08:58:21;;;;;;;60.70;38.27;;;6.80;99.90;;;;;;5015637;28;20049;-76
2022/11/14 09:00:47;;;;;;;57.43;37.43;;;6.80;99.90;;;;;;5014357;28;20042;-75
2022/11/14 09:03:14;;;;;;;59.57;38.53;;;6.80;99.90;;;;;;5015543;28;20486;-76
2022/11/14 09:05:41;;;;;;;55.95;37.40;;;6.90;99.90;;;;;;5014338;28;20371;-76
2022/11/14 09:08:07;;;;;;;62.63;39.38;;;6.90;99.90;;;;;;5016019;28;20434;-76
2022/11/14 09:10:33;;;;;;;60.67;38.07;;;7.00;99.90;;;;;;5014876;28;20096;-76
2022/11/14 09:13:00;;;;;;;54.53;36.43;;;7.00;99.90;;;;;;5015346;28;20280;-76
2022/11/14 09:15:27;;;;;;;56.63;37.97;;;7.00;99.90;;;;;;5014633;28;20371;-81
2022/11/14 09:17:54;;;;;;;57.83;37.38;;;6.90;99.90;;;;;;5015522;28;20273;-76
2022/11/14 09:20:21;;;;;;;57.72;37.85;;;6.90;99.90;;;;;;5015070;28;20042;-76
2022/11/14 09:22:46;;;;;;;58.20;37.83;;;6.90;99.90;;;;;;5015619;28;20050;-76
2022/11/14 09:25:12;;;;;;;54.97;37.50;;;6.90;99.90;;;;;;5015095;28;20355;-76
2022/11/14 09:27:38;;;;;;;59.40;37.50;;;6.90;99.90;;;;;;4997713;28;20129;-76
2022/11/14 09:30:05;;;;;;;54.93;36.67;;;7.00;99.90;;;;;;5015583;28;20068;-76
2022/11/14 09:32:30;;;;;;;52.80;34.67;;;7.00;99.90;;;;;;4997289;28;20072;-76
2022/11/14 09:34:56;;;;;;;52.43;36.20;;;7.00;99.90;;;;;;5014214;28;20136;-76
2022/11/14 09:37:22;;;;;;;55.30;36.87;;;7.00;99.90;;;;;;5015126;28;20054;-76
2022/11/14 09:39:47;;;;;;;53.30;34.37;;;7.00;99.90;;;;;;5015067;28;20049;-76
2022/11/14 09:42:28;;;;;;;53.97;35.17;;;7.00;99.90;;;;;;5013854;28;20046;-76
2022/11/14 09:45:01;;;;;;;49.63;34.33;;;7.00;99.90;;;;;;5014749;28;20093;-76
2022/11/14 09:47:41;;;;;;;51.40;33.60;;;7.00;99.90;;;;;;5014684;28;20398;-76
2022/11/14 09:50:13;;;;;;;58.07;35.27;;;7.00;99.90;;;;;;5014699;28;20315;-76
2022/11/14 09:53:02;;;;;;;54.90;36.57;;;7.10;99.90;;;;;;5014618;28;20281;-76
2022/11/14 09:55:30;;;;;;;53.08;35.33;;;7.10;99.90;;;;;;5014607;28;20284;-76
2022/11/14 09:57:56;;;;;;;45.80;32.03;;;7.10;99.90;;;;;;5013549;28;20054;-76
2022/11/14 10:00:59;;;;;;;50.87;33.80;;;7.20;99.90;;;;;;5014967;28;20344;-76
2022/11/14 10:04:04;;;;;;;48.53;34.33;;;7.20;99.90;;;;;;5002416;28;20300;-76
2022/11/14 10:06:39;;;;;;;48.42;32.60;;;7.20;99.90;;;;;;5013018;28;20285;-75
2022/11/14 10:09:37;;;;;;;51.07;33.13;;;7.20;99.90;;;;;;5014679;28;20425;-76
2022/11/14 10:12:08;;;;;;;48.47;32.37;;;7.20;99.90;;;;;;4997164;28;20335;-76
2022/11/14 10:14:42;;;;;;;55.47;34.70;;;7.30;99.90;;;;;;5014259;28;20343;-78
2022/11/14 10:17:22;;;;;;;54.07;34.83;;;7.30;99.90;;;;;;5014203;28;20281;-76
2022/11/14 10:20:15;;;;;;;52.53;34.33;;;7.30;99.90;;;;;;5013956;28;20309;-76
2022/11/14 10:23:07;;;;;;;49.40;34.23;;;7.40;99.90;;;;;;5013868;28;20281;-76
2022/11/14 10:25:50;;;;;;;49.97;33.27;;;7.50;99.90;;;;;;5014702;28;20300;-76
2022/11/14 10:28:50;;;;;;;49.17;33.27;;;7.50;99.90;;;;;;5013747;28;20672;-76
2022/11/14 10:31:51;;;;;;;51.10;33.63;;;7.60;99.90;;;;;;5013064;28;20300;-76
2022/11/14 10:34:29;;;;;;;47.70;31.87;;;7.60;99.90;;;;;;5002363;28;20293;-76
2022/11/14 10:37:22;;;;;;;42.97;30.73;;;7.60;99.90;;;;;;5013983;28;20742;-76
2022/11/14 10:39:52;;;;;;;47.40;32.13;;;7.60;99.90;;;;;;5014668;28;20318;-76
2022/11/14 10:42:36;;;;;;;42.30;30.27;;;7.60;99.90;;;;;;5014011;28;20061;-76
2022/11/14 10:45:05;;;;;;;45.70;31.97;;;7.70;99.90;;;;;;5014220;28;20270;-76
2022/11/14 10:47:38;;;;;;;43.07;30.57;;;7.60;99.90;;;;;;5012883;28;20296;-75
2022/11/14 10:50:25;;;;;;;49.07;32.73;;;7.60;99.90;;;;;;5012942;28;20293;-76
2022/11/14 10:52:58;;;;;;;45.97;32.07;;;7.60;99.90;;;;;;5014133;28;20268;-76
2022/11/14 10:55:23;;;;;;;47.50;32.80;;;7.60;99.90;;;;;;5013897;28;20360;-76
2022/11/14 10:57:49;;;;;;;43.30;31.90;;;7.70;99.90;;;;;;5013989;28;20321;-76
2022/11/14 11:00:21;;;;;;;49.87;33.27;;;7.70;99.90;;;;;;5012867;28;20393;-76
2022/11/14 11:02:55;;;;;;;49.43;32.37;;;7.70;99.90;;;;;;5012646;28;20065;-76
2022/11/14 11:05:26;;;;;;;45.53;32.57;;;7.80;99.90;;;;;;5013749;28;20288;-76
2022/11/14 11:13:34;;;;;;;44.50;30.47;;;7.80;99.90;;;;;;5012981;28;20308;-76
2022/11/14 11:16:02;;;;;;;45.60;31.47;;;7.90;99.90;;;;;;5013589;28;20362;-76
2022/11/14 11:18:32;;;;;;;43.57;30.77;;;7.90;99.90;;;;;;5013887;28;20279;-76
2022/11/14 11:21:10;;;;;;;46.33;31.43;;;7.90;99.90;;;;;;5013499;28;20296;-76
2022/11/14 11:23:47;;;;;;;43.53;31.20;;;8.00;99.90;;;;;;5013614;28;20324;-76
2022/11/14 11:26:31;;;;;;;44.20;31.13;;;8.00;99.90;;;;;;5014364;28;20622;-76
2022/11/14 11:29:13;;;;;;;47.07;31.40;;;8.00;99.90;;;;;;5014091;28;20280;-76
2022/11/14 11:31:49;;;;;;;46.37;31.50;;;8.00;99.90;;;;;;5013520;28;20360;-76
2022/11/14 11:34:22;;;;;;;46.13;32.20;;;8.00;99.90;;;;;;5015386;28;20292;-76
2022/11/14 11:37:09;;;;;;;48.03;33.53;;;8.10;99.90;;;;;;5016488;28;20297;-76
2022/11/14 11:39:44;;;;;;;46.97;32.27;;;8.10;99.90;;;;;;4999419;28;20387;-76
2022/11/14 11:42:33;;;;;;;49.33;31.17;;;8.10;99.90;;;;;;5016728;28;20676;-76
2022/11/14 11:45:03;;;;;;;44.33;30.53;;;8.10;99.90;;;;;;5017572;28;20077;-76
2022/11/14 11:47:32;;;;;;;41.27;29.93;;;8.10;99.90;;;;;;5015997;28;20292;-76
2022/11/14 11:50:01;;;;;;;43.87;30.43;;;8.20;99.90;;;;;;5016931;28;20281;-76
2022/11/14 11:52:47;;;;;;;40.63;28.70;;;8.20;99.90;;;;;;5016890;28;20303;-76
2022/11/14 11:55:33;;;;;;;39.63;28.13;;;8.10;99.90;;;;;;5015929;28;20681;-76
2022/11/14 11:58:22;;;;;;;40.73;29.40;;;8.20;99.90;;;;;;5016738;28;20380;-76
2022/11/14 12:00:56;;;;;;;43.53;29.67;;;8.20;99.90;;;;;;5016455;28;20439;-77
2022/11/14 12:03:24;;;;;;;41.57;29.47;;;8.20;99.90;;;;;;5016729;28;20378;-76
2022/11/14 12:06:11;;;;;;;42.23;28.97;;;8.20;99.90;;;;;;5015641;28;20287;-76
2022/11/14 12:08:55;;;;;;;39.53;28.57;;;8.30;99.90;;;;;;5016596;28;20363;-76
2022/11/14 12:11:25;;;;;;;41.53;28.37;;;8.30;99.90;;;;;;5015275;28;20293;-76
2022/11/14 12:14:33;;;;;;;41.97;30.00;;;8.30;99.90;;;;;;5015318;28;20277;-76
2022/11/14 12:17:07;;;;;;;42.73;30.57;;;8.30;99.90;;;;;;5016437;28;20291;-76
2022/11/14 12:20:05;;;;;;;41.08;29.23;;;8.30;99.90;;;;;;5016871;28;20622;-76
2022/11/14 12:22:39;;;;;;;43.53;31.10;;;8.30;99.90;;;;;;5016737;28;20046;-76
2022/11/14 12:25:38;;;;;;;41.53;30.00;;;8.30;99.90;;;;;;5016233;28;20285;-76
2022/11/14 12:28:26;;;;;;;40.97;29.60;;;8.30;99.90;;;;;;5016786;28;20715;-76
2022/11/14 12:30:57;;;;;;;40.73;30.27;;;8.40;99.90;;;;;;5016457;28;20281;-77
2022/11/14 12:33:26;;;;;;;42.33;30.10;;;8.40;99.90;;;;;;5015522;28;20292;-76
2022/11/14 12:35:56;;;;;;;42.17;29.23;;;8.30;99.90;;;;;;5015072;28;20633;-76
2022/11/14 12:38:23;;;;;;;39.93;29.27;;;8.30;99.90;;;;;;5015390;28;20300;-76
2022/11/14 12:40:57;;;;;;;41.27;29.13;;;8.30;99.90;;;;;;5016774;28;20599;-76
2022/11/14 12:43:41;;;;;;;40.42;30.17;;;8.40;99.90;;;;;;5014804;28;20280;-76
2022/11/14 12:46:10;;;;;;;41.63;30.00;;;8.40;99.90;;;;;;5013683;28;20045;-76
2022/11/14 12:48:38;;;;;;;40.03;28.93;;;8.40;99.90;;;;;;5015808;28;20291;-76
2022/11/14 12:51:27;;;;;;;42.60;28.00;;;8.40;99.90;;;;;;5015741;28;20277;-76
2022/11/14 12:53:55;;;;;;;39.07;30.30;;;8.40;99.90;;;;;;5014880;28;20293;-78